Time;durP1;ratioP1;P1;durP2;ratioP2;P2;SDS_P1;SDS_P2;PMS_P1;PMS_P2;Temp;Humidity;BMP_temperature;BMP_pressure;BME280_temperature;BME280_humidity;BME280_pressure;Samples;Min_cycle;Max_cycle;Signal;HPM_P1;HPM_P2
2022/12/12 00:01:16;;;;;;;29.73;20.80;;;-0.20;97.10;;;;;;4985458;28;20191;-81
2022/12/12 00:03:42;;;;;;;27.03;20.60;;;-0.30;97.70;;;;;;5002874;28;20210;-84
2022/12/12 00:06:07;;;;;;;27.83;21.00;;;-0.30;98.00;;;;;;4989423;28;20197;-86
2022/12/12 00:08:33;;;;;;;28.17;21.80;;;-0.10;98.00;;;;;;4986791;28;20195;-83
2022/12/12 00:10:58;;;;;;;30.83;22.07;;;-0.20;96.60;;;;;;4984793;28;20183;-84
2022/12/12 00:13:24;;;;;;;28.17;22.00;;;-0.40;98.10;;;;;;4988574;28;20232;-81
2022/12/12 00:15:50;;;;;;;30.20;22.47;;;-0.50;98.30;;;;;;4987009;28;20205;-84
2022/12/12 00:18:15;;;;;;;28.37;22.93;;;-0.60;99.30;;;;;;4987925;28;20186;-84
2022/12/12 00:20:41;;;;;;;28.50;21.57;;;-0.80;99.70;;;;;;4988789;28;20683;-85
2022/12/12 00:23:07;;;;;;;28.57;22.57;;;-0.80;99.90;;;;;;4991226;28;20186;-84
2022/12/12 00:25:32;;;;;;;27.87;20.63;;;-0.90;99.90;;;;;;4985764;28;20526;-85
2022/12/12 00:27:59;;;;;;;29.43;23.57;;;-0.80;99.90;;;;;;4988527;28;20230;-83
2022/12/12 00:30:25;;;;;;;29.60;24.07;;;-0.80;99.90;;;;;;4986176;28;20194;-86
2022/12/12 00:32:51;;;;;;;26.50;20.30;;;-0.80;99.90;;;;;;4986876;28;20213;-83
2022/12/12 00:35:16;;;;;;;27.13;20.87;;;-0.70;99.90;;;;;;5000898;28;20202;-85
2022/12/12 00:37:42;;;;;;;27.27;21.07;;;-0.70;99.40;;;;;;4989181;28;20233;-83
2022/12/12 00:40:09;;;;;;;28.80;21.83;;;-0.80;99.90;;;;;;4987343;28;20186;-83
2022/12/12 00:42:35;;;;;;;28.30;22.07;;;-0.80;99.90;;;;;;4988746;28;20205;-84
2022/12/12 00:45:01;;;;;;;28.53;21.47;;;-0.80;99.70;;;;;;4987494;28;20214;-84
2022/12/12 00:47:26;;;;;;;29.40;22.27;;;-0.70;99.90;;;;;;4982936;28;20666;-83
2022/12/12 00:49:52;;;;;;;27.57;20.87;;;-0.50;99.90;;;;;;4986655;28;20240;-84
2022/12/12 00:52:18;;;;;;;27.47;20.27;;;-0.40;99.40;;;;;;4983208;28;20196;-83
2022/12/12 00:54:43;;;;;;;26.77;20.97;;;-0.20;98.80;;;;;;4979912;28;20226;-84
2022/12/12 00:57:09;;;;;;;23.63;19.40;;;0.00;98.30;;;;;;4983565;28;20207;-84
2022/12/12 00:59:35;;;;;;;27.07;20.43;;;0.20;97.60;;;;;;5005983;28;20227;-86
2022/12/12 01:02:00;;;;;;;26.43;20.07;;;0.20;96.40;;;;;;5002536;28;20604;-83
2022/12/12 01:04:26;;;;;;;28.47;20.73;;;0.30;95.30;;;;;;4985630;28;20222;-84
2022/12/12 01:06:52;;;;;;;27.93;20.77;;;0.30;95.60;;;;;;4989689;28;20218;-84
2022/12/12 01:09:18;;;;;;;26.73;22.40;;;0.20;93.50;;;;;;4990575;28;20194;-82
2022/12/12 01:11:43;;;;;;;25.70;21.13;;;-0.10;95.80;;;;;;4984920;28;20661;-83
2022/12/12 01:14:09;;;;;;;28.90;21.40;;;0.00;96.90;;;;;;4977420;28;20380;-82
2022/12/12 01:16:35;;;;;;;29.40;20.50;;;0.00;96.50;;;;;;4976160;28;20476;-83
2022/12/12 01:19:00;;;;;;;24.07;19.67;;;0.00;95.70;;;;;;4976892;28;20210;-83
2022/12/12 01:21:26;;;;;;;24.53;19.57;;;0.10;96.60;;;;;;4982491;28;20514;-82
2022/12/12 01:23:52;;;;;;;26.90;21.60;;;0.30;96.00;;;;;;4977707;28;20214;-85
2022/12/12 01:26:21;;;;;;;23.07;18.97;;;0.40;93.00;;;;;;4978259;28;20198;-83
2022/12/12 01:28:47;;;;;;;26.00;20.10;;;0.30;93.70;;;;;;4974029;28;20191;-84
2022/12/12 01:31:13;;;;;;;24.43;20.03;;;0.30;94.10;;;;;;4976983;28;20191;-84
2022/12/12 01:33:39;;;;;;;28.57;21.57;;;-0.10;95.30;;;;;;4997567;28;20217;-82
2022/12/12 01:36:05;;;;;;;29.13;22.90;;;-0.40;96.70;;;;;;4985631;28;20195;-83
2022/12/12 01:38:31;;;;;;;23.47;18.40;;;-0.60;97.60;;;;;;4983408;28;20265;-83
2022/12/12 01:40:57;;;;;;;24.87;19.20;;;-0.60;98.90;;;;;;4977605;28;20234;-84
2022/12/12 01:43:24;;;;;;;23.67;18.47;;;-0.50;98.60;;;;;;4977701;28;20205;-84
2022/12/12 01:46:01;;;;;;;21.43;17.20;;;-0.30;97.70;;;;;;4979170;28;20531;-86
2022/12/12 01:48:35;;;;;;;21.77;16.30;;;-0.30;97.00;;;;;;4985189;28;20191;-84
2022/12/12 01:51:07;;;;;;;23.77;17.13;;;-0.40;96.10;;;;;;4980709;28;20181;-86
2022/12/12 01:53:33;;;;;;;24.27;17.73;;;-0.20;96.20;;;;;;4980121;28;20602;-85
2022/12/12 01:56:01;;;;;;;22.37;18.03;;;-0.30;95.90;;;;;;4979547;28;20201;-85
2022/12/12 01:58:28;;;;;;;25.33;18.67;;;-0.50;96.00;;;;;;4980347;28;20207;-86
2022/12/12 02:00:54;;;;;;;25.67;18.53;;;-0.50;96.50;;;;;;4983071;28;20182;-85
2022/12/12 02:03:19;;;;;;;22.67;18.17;;;-0.60;98.00;;;;;;4979224;28;20593;-86
2022/12/12 02:05:53;;;;;;;24.03;18.93;;;-0.40;97.50;;;;;;4984907;28;20239;-86
2022/12/12 02:08:21;;;;;;;24.10;17.60;;;-0.50;97.10;;;;;;4983854;28;20183;-85
2022/12/12 02:10:46;;;;;;;23.80;19.20;;;-0.40;98.30;;;;;;4979183;28;20653;-85
2022/12/12 02:13:19;;;;;;;25.37;19.87;;;-0.40;97.70;;;;;;4978839;28;20214;-85
2022/12/12 02:15:53;;;;;;;26.87;19.07;;;-0.40;97.30;;;;;;4978560;28;20693;-85
2022/12/12 02:18:38;;;;;;;25.33;20.10;;;-0.40;98.00;;;;;;4987272;28;20186;-85
2022/12/12 02:21:16;;;;;;;25.50;19.80;;;-0.40;97.60;;;;;;4987728;28;20895;-86
2022/12/12 02:24:16;;;;;;;27.57;19.87;;;-0.60;98.00;;;;;;4978956;28;20278;-85
2022/12/12 02:27:11;;;;;;;26.07;19.83;;;-0.50;98.20;;;;;;4990508;28;20187;-85
2022/12/12 02:30:08;;;;;;;26.53;21.07;;;-0.50;97.50;;;;;;4989493;28;20202;-86
2022/12/12 02:32:48;;;;;;;26.03;19.87;;;-0.60;97.90;;;;;;4986774;28;20191;-86
2022/12/12 02:35:28;;;;;;;24.60;20.63;;;-0.60;98.30;;;;;;4990371;28;20223;-86
2022/12/12 02:38:20;;;;;;;23.27;18.80;;;-0.60;98.80;;;;;;4987477;28;20179;-85
2022/12/12 02:41:05;;;;;;;25.57;19.50;;;-0.60;98.50;;;;;;4985002;28;20243;-85
2022/12/12 02:43:42;;;;;;;26.60;20.37;;;-0.70;98.50;;;;;;4986589;28;20664;-85
2022/12/12 02:46:11;;;;;;;24.43;19.53;;;-0.80;98.60;;;;;;4987048;28;20299;-86
2022/12/12 02:48:56;;;;;;;22.23;18.77;;;-0.60;98.60;;;;;;4981767;28;20243;-86
2022/12/12 02:51:24;;;;;;;24.13;18.97;;;-0.50;98.40;;;;;;4998576;28;20237;-86
2022/12/12 02:56:46;;;;;;;21.07;17.37;;;-0.40;96.80;;;;;;5027622;28;20558;-86
2022/12/12 02:59:37;;;;;;;24.47;18.93;;;-0.40;97.50;;;;;;5032126;28;20188;-86
2022/12/12 03:02:14;;;;;;;23.83;17.13;;;-0.30;97.00;;;;;;5021204;28;20189;-86
2022/12/12 03:08:17;;;;;;;24.70;18.43;;;-0.20;95.50;;;;;;5002888;28;20205;-86
2022/12/12 03:11:09;;;;;;;22.30;16.90;;;-0.30;95.80;;;;;;5007973;28;20182;-85
2022/12/12 03:14:06;;;;;;;19.10;16.67;;;-0.30;95.60;;;;;;4999823;28;20303;-85
2022/12/12 03:16:42;;;;;;;21.87;17.93;;;-0.30;95.50;;;;;;5002610;28;20201;-86
2022/12/12 03:19:11;;;;;;;22.37;17.67;;;-0.30;94.60;;;;;;5008696;28;20177;-86
2022/12/12 03:21:49;;;;;;;19.73;16.27;;;-0.40;95.20;;;;;;5006459;28;20314;-87
2022/12/12 03:25:06;;;;;;;21.73;15.53;;;-0.50;95.40;;;;;;5005954;28;20706;-87
2022/12/12 03:27:39;;;;;;;20.80;14.70;;;-0.50;95.30;;;;;;5001977;28;20195;-86
2022/12/12 03:30:06;;;;;;;18.90;15.10;;;-0.40;95.60;;;;;;5006512;28;20189;-85
2022/12/12 03:32:45;;;;;;;19.10;15.03;;;-0.30;95.10;;;;;;5006831;28;20186;-86
2022/12/12 03:35:30;;;;;;;19.90;15.13;;;-0.30;94.50;;;;;;5006787;28;20209;-86
2022/12/12 03:38:13;;;;;;;21.93;15.97;;;-0.30;94.30;;;;;;5003561;28;20193;-86
2022/12/12 03:40:57;;;;;;;16.97;14.37;;;-0.40;93.50;;;;;;5022289;28;20177;-86
2022/12/12 03:43:32;;;;;;;18.30;13.73;;;-0.40;94.20;;;;;;5017298;28;20263;-86
2022/12/12 03:46:07;;;;;;;15.80;12.77;;;-0.50;94.70;;;;;;5019699;28;20184;-87
2022/12/12 03:48:37;;;;;;;18.93;15.20;;;-0.40;94.70;;;;;;5010434;28;20192;-86
2022/12/12 03:51:08;;;;;;;16.17;13.63;;;-0.30;93.20;;;;;;5019926;28;20211;-86
2022/12/12 03:54:02;;;;;;;16.63;13.47;;;-0.30;94.00;;;;;;5007435;28;20209;-86
2022/12/12 03:56:37;;;;;;;16.47;12.73;;;-0.40;93.00;;;;;;5016749;28;20185;-86
2022/12/12 03:59:03;;;;;;;16.40;13.40;;;-0.80;92.60;;;;;;5010732;28;20185;-86
2022/12/12 04:01:49;;;;;;;15.50;13.00;;;-0.90;93.10;;;;;;5021630;28;20185;-86
2022/12/12 04:04:26;;;;;;;16.10;12.17;;;-1.20;94.20;;;;;;5015802;28;20217;-86
2022/12/12 04:07:01;;;;;;;15.63;12.47;;;-1.60;94.80;;;;;;5005984;28;20207;-86
2022/12/12 04:12:58;;;;;;;15.83;11.80;;;-1.80;96.50;;;;;;5009420;28;20216;-86
2022/12/12 04:15:26;;;;;;;12.70;9.77;;;-1.90;97.60;;;;;;5016775;28;20224;-88
2022/12/12 04:18:27;;;;;;;12.43;10.10;;;-2.00;98.10;;;;;;5017990;28;20189;-86
2022/12/12 04:24:19;;;;;;;12.90;10.00;;;-2.10;98.90;;;;;;5007381;28;20200;-85
2022/12/12 04:26:52;;;;;;;11.00;8.50;;;-2.10;99.30;;;;;;5009874;28;20189;-87
2022/12/12 04:29:18;;;;;;;11.33;9.23;;;-2.00;99.90;;;;;;5019959;28;20741;-87
2022/12/12 04:31:55;;;;;;;12.13;9.47;;;-2.00;98.70;;;;;;5004373;28;20186;-87
2022/12/12 04:34:28;;;;;;;10.63;9.50;;;-2.10;98.70;;;;;;5002129;28;20582;-87
2022/12/12 04:36:54;;;;;;;13.97;10.47;;;-2.10;99.20;;;;;;5002550;28;20209;-87
2022/12/12 04:39:21;;;;;;;12.97;10.43;;;-2.10;97.80;;;;;;5008663;28;20220;-87
2022/12/12 04:41:50;;;;;;;12.93;9.67;;;-2.10;97.40;;;;;;5008857;28;20190;-87
2022/12/12 04:44:19;;;;;;;13.90;10.43;;;-2.20;96.90;;;;;;5010175;28;20205;-88
2022/12/12 04:46:49;;;;;;;12.40;10.53;;;-2.20;97.40;;;;;;5004264;28;20221;-86
2022/12/12 04:49:20;;;;;;;14.93;12.20;;;-2.40;97.40;;;;;;4996888;28;20193;-87
2022/12/12 04:51:49;;;;;;;14.43;11.27;;;-2.50;98.00;;;;;;5008117;28;20197;-86
2022/12/12 04:54:18;;;;;;;13.30;10.63;;;-2.50;98.80;;;;;;5009771;28;20233;-86
2022/12/12 04:56:50;;;;;;;13.17;11.17;;;-2.70;99.40;;;;;;5007789;28;20282;-85
2022/12/12 04:59:16;;;;;;;16.20;11.83;;;-2.70;99.90;;;;;;5011114;28;20200;-86
2022/12/12 05:02:01;;;;;;;14.80;11.10;;;-2.80;99.90;;;;;;5005251;28;20197;-86
2022/12/12 05:04:36;;;;;;;14.83;11.47;;;-2.70;99.90;;;;;;5009045;28;20213;-86
2022/12/12 05:07:09;;;;;;;15.47;12.07;;;-2.70;99.90;;;;;;4998977;28;20739;-86
2022/12/12 05:09:36;;;;;;;15.93;10.97;;;-2.80;99.90;;;;;;5002426;28;20221;-86
2022/12/12 05:12:01;;;;;;;14.43;11.67;;;-2.70;99.90;;;;;;5003468;28;20190;-86
2022/12/12 05:14:30;;;;;;;12.13;10.50;;;-2.50;99.90;;;;;;5012475;28;20577;-86
2022/12/12 05:17:02;;;;;;;18.07;12.10;;;-2.40;99.90;;;;;;5010393;28;20269;-86
2022/12/12 05:19:28;;;;;;;15.40;11.77;;;-2.50;99.40;;;;;;5014524;28;20219;-86
2022/12/12 05:21:53;;;;;;;12.43;10.53;;;-2.60;99.90;;;;;;5014744;28;20186;-86
2022/12/12 05:24:19;;;;;;;18.03;12.03;;;-2.50;99.90;;;;;;5008276;28;20206;-87
2022/12/12 05:26:45;;;;;;;13.57;10.73;;;-2.30;99.90;;;;;;5002568;28;20204;-86
2022/12/12 05:29:10;;;;;;;14.10;10.93;;;-2.10;99.90;;;;;;5005533;28;20282;-86
2022/12/12 05:31:36;;;;;;;13.10;10.53;;;-2.00;99.90;;;;;;5002763;28;20193;-86
2022/12/12 05:34:03;;;;;;;12.50;9.13;;;-1.90;99.90;;;;;;5006254;28;20247;-85
2022/12/12 05:36:28;;;;;;;12.23;10.27;;;-1.80;97.30;;;;;;5007885;28;20193;-84
2022/12/12 05:38:54;;;;;;;11.70;9.53;;;-1.80;96.30;;;;;;5004467;28;20194;-83
2022/12/12 05:41:19;;;;;;;10.47;8.97;;;-1.90;96.00;;;;;;5009207;28;20220;-83
2022/12/12 05:43:45;;;;;;;9.90;7.77;;;-1.90;95.00;;;;;;5004922;28;20247;-87
2022/12/12 05:46:11;;;;;;;9.47;7.73;;;-2.00;94.10;;;;;;5014228;28;20281;-83
2022/12/12 05:48:36;;;;;;;7.83;6.97;;;-2.10;93.90;;;;;;5004051;28;20325;-84
2022/12/12 05:51:02;;;;;;;6.87;6.17;;;-2.30;93.50;;;;;;5010127;28;20664;-83
2022/12/12 05:53:28;;;;;;;7.87;6.03;;;-2.40;94.30;;;;;;5011563;28;20214;-82
2022/12/12 05:55:54;;;;;;;9.13;7.03;;;-2.30;94.90;;;;;;5002915;28;20281;-83
2022/12/12 05:58:20;;;;;;;11.23;6.77;;;-2.30;94.80;;;;;;5008132;28;20194;-84
2022/12/12 06:00:47;;;;;;;8.53;7.13;;;-2.00;95.00;;;;;;5008917;28;20267;-84
2022/12/12 06:03:13;;;;;;;8.20;7.40;;;-1.80;93.60;;;;;;5016859;28;20660;-83
2022/12/12 06:05:39;;;;;;;8.57;6.73;;;-1.70;92.90;;;;;;5008442;28;20221;-84
2022/12/12 06:08:05;;;;;;;7.90;6.80;;;-1.60;91.90;;;;;;5008207;28;20194;-83
2022/12/12 06:10:30;;;;;;;8.80;7.00;;;-1.60;92.60;;;;;;5009330;28;20212;-84
2022/12/12 06:12:56;;;;;;;7.10;6.40;;;-1.80;90.20;;;;;;5005523;28;20553;-84
2022/12/12 06:15:21;;;;;;;8.20;6.97;;;-2.00;90.60;;;;;;4997190;28;20212;-83
2022/12/12 06:17:50;;;;;;;9.63;6.83;;;-2.30;92.70;;;;;;5008890;28;20209;-82
2022/12/12 06:20:16;;;;;;;6.90;6.20;;;-2.40;93.10;;;;;;5007497;28;20505;-82
2022/12/12 06:22:42;;;;;;;7.90;6.90;;;-2.20;95.40;;;;;;5026993;28;20657;-82
2022/12/12 06:25:08;;;;;;;7.93;6.70;;;-2.10;95.00;;;;;;5003573;28;20280;-83
2022/12/12 06:27:34;;;;;;;9.10;7.30;;;-1.90;94.80;;;;;;5014075;28;20193;-83
2022/12/12 06:30:00;;;;;;;8.93;7.33;;;-1.80;91.80;;;;;;5004197;28;20193;-83
2022/12/12 06:32:25;;;;;;;9.30;6.27;;;-1.70;92.60;;;;;;5011503;28;20182;-83
2022/12/12 06:34:51;;;;;;;9.80;6.63;;;-1.80;89.80;;;;;;5006970;28;20649;-85
2022/12/12 06:37:17;;;;;;;7.77;5.93;;;-2.20;91.70;;;;;;5006944;28;20717;-84
2022/12/12 06:39:44;;;;;;;8.30;5.93;;;-2.40;91.50;;;;;;5006057;28;20237;-84
2022/12/12 06:42:09;;;;;;;8.10;6.30;;;-2.30;93.30;;;;;;5013070;28;20212;-84
2022/12/12 06:44:35;;;;;;;6.43;5.27;;;-2.50;92.20;;;;;;5008480;28;20217;-82
2022/12/12 06:47:00;;;;;;;8.00;6.47;;;-2.50;94.80;;;;;;5004641;28;20222;-83
2022/12/12 06:49:26;;;;;;;6.77;6.03;;;-2.50;93.20;;;;;;5007337;28;20193;-84
2022/12/12 06:51:52;;;;;;;9.00;7.17;;;-2.40;95.20;;;;;;5013060;28;20201;-83
2022/12/12 06:54:18;;;;;;;7.30;6.47;;;-2.50;93.70;;;;;;4999615;28;20282;-83
2022/12/12 06:56:43;;;;;;;9.13;7.13;;;-2.50;95.70;;;;;;5003834;28;20235;-81
2022/12/12 06:59:10;;;;;;;9.37;7.33;;;-2.40;95.20;;;;;;5012545;28;20206;-84
2022/12/12 07:01:37;;;;;;;11.80;8.27;;;-2.50;96.00;;;;;;5002071;28;20187;-85
2022/12/12 07:04:02;;;;;;;9.17;7.10;;;-2.30;95.70;;;;;;5006727;28;20249;-83
2022/12/12 07:06:28;;;;;;;17.33;8.83;;;-2.40;96.20;;;;;;5005992;28;20197;-83
2022/12/12 07:08:56;;;;;;;11.17;7.77;;;-2.20;97.10;;;;;;5006332;28;20280;-83
2022/12/12 07:11:24;;;;;;;11.30;8.53;;;-2.00;94.50;;;;;;5008173;28;20214;-83
2022/12/12 07:13:51;;;;;;;13.27;9.07;;;-2.10;94.20;;;;;;5004400;28;20233;-83
2022/12/12 07:16:17;;;;;;;11.47;8.73;;;-2.20;94.30;;;;;;5006980;28;20717;-83
2022/12/12 07:18:43;;;;;;;11.30;9.23;;;-2.20;95.50;;;;;;5007007;28;20208;-83
2022/12/12 07:21:12;;;;;;;12.53;9.33;;;-2.00;94.80;;;;;;4999568;28;20190;-82
2022/12/12 07:23:38;;;;;;;13.13;10.23;;;-2.10;93.90;;;;;;5023442;28;20190;-84
2022/12/12 07:26:11;;;;;;;11.57;9.77;;;-2.40;94.80;;;;;;5024161;28;20198;-82
2022/12/12 07:28:39;;;;;;;11.67;10.27;;;-2.30;95.20;;;;;;5017911;28;20213;-82
2022/12/12 07:31:07;;;;;;;11.90;9.87;;;-2.40;95.70;;;;;;5008143;28;20189;-83
2022/12/12 07:33:33;;;;;;;12.83;9.30;;;-2.60;96.90;;;;;;5004017;28;20221;-84
2022/12/12 07:35:59;;;;;;;15.97;10.23;;;-2.70;97.90;;;;;;5002013;28;20884;-84
2022/12/12 07:38:26;;;;;;;12.80;10.27;;;-2.60;98.50;;;;;;5000163;28;20193;-83
2022/12/12 07:40:51;;;;;;;12.03;10.10;;;-2.50;98.10;;;;;;5000967;28;20194;-83
2022/12/12 07:43:17;;;;;;;14.53;10.70;;;-2.50;97.80;;;;;;4998566;28;20277;-82
2022/12/12 07:45:44;;;;;;;12.97;10.40;;;-2.50;98.20;;;;;;5010009;28;20240;-83
2022/12/12 07:48:10;;;;;;;14.63;11.33;;;-2.50;98.60;;;;;;5009558;28;20197;-82
2022/12/12 07:50:37;;;;;;;13.90;11.00;;;-2.40;98.60;;;;;;5004926;28;20229;-83
2022/12/12 07:53:02;;;;;;;13.40;10.90;;;-2.20;97.60;;;;;;5025389;28;20194;-85
2022/12/12 07:55:28;;;;;;;12.57;9.83;;;-1.90;96.70;;;;;;5024908;28;20233;-82
2022/12/12 07:57:55;;;;;;;14.43;10.40;;;-1.80;95.50;;;;;;5011491;28;20210;-82
2022/12/12 08:00:21;;;;;;;24.70;18.80;;;-1.90;95.70;;;;;;5027320;28;20297;-83
2022/12/12 08:02:47;;;;;;;14.50;12.40;;;-2.00;96.00;;;;;;5015701;28;20202;-84
2022/12/12 08:05:14;;;;;;;15.33;11.53;;;-1.90;96.00;;;;;;5006083;28;20221;-83
2022/12/12 08:07:39;;;;;;;13.67;10.83;;;-2.10;95.70;;;;;;5001492;28;20234;-82
2022/12/12 08:10:06;;;;;;;13.70;10.83;;;-2.00;96.70;;;;;;5026145;28;20687;-82
2022/12/12 08:12:32;;;;;;;14.47;10.70;;;-2.00;96.10;;;;;;5007255;28;20189;-84
2022/12/12 08:14:57;;;;;;;14.63;11.40;;;-1.90;96.40;;;;;;5004997;28;20240;-84
2022/12/12 08:17:23;;;;;;;12.97;10.97;;;-1.70;96.40;;;;;;5007297;28;20244;-83
2022/12/12 08:19:49;;;;;;;12.67;11.00;;;-1.50;95.90;;;;;;4999369;28;20181;-83
2022/12/12 08:22:14;;;;;;;12.80;11.13;;;-1.40;93.50;;;;;;5002443;28;20611;-84
2022/12/12 08:24:40;;;;;;;14.83;11.37;;;-1.60;93.50;;;;;;5004682;28;20202;-83
2022/12/12 08:27:06;;;;;;;16.07;12.83;;;-1.70;94.80;;;;;;5011616;28;20201;-83
2022/12/12 08:29:31;;;;;;;19.53;13.63;;;-1.80;94.70;;;;;;5003806;28;20190;-83
2022/12/12 08:31:57;;;;;;;19.73;13.77;;;-1.90;96.00;;;;;;5017762;28;20245;-83
2022/12/12 08:34:23;;;;;;;20.00;13.00;;;-2.30;98.60;;;;;;5010653;28;20232;-81
2022/12/12 08:36:49;;;;;;;17.70;13.23;;;-2.20;99.40;;;;;;5015326;28;20194;-83
2022/12/12 08:39:15;;;;;;;19.40;14.67;;;-2.10;98.20;;;;;;5001118;28;20190;-84
2022/12/12 08:41:43;;;;;;;15.60;13.03;;;-2.20;98.70;;;;;;5002254;28;20178;-82
2022/12/12 08:44:10;;;;;;;18.03;12.63;;;-2.00;98.60;;;;;;5007979;28;20259;-85
2022/12/12 08:46:37;;;;;;;15.77;12.73;;;-1.60;97.60;;;;;;5010881;28;20660;-83
2022/12/12 08:49:03;;;;;;;20.83;13.97;;;-1.40;97.10;;;;;;5001051;28;20198;-83
2022/12/12 08:51:28;;;;;;;17.33;13.93;;;-1.40;95.00;;;;;;5010940;28;20613;-84
2022/12/12 08:53:54;;;;;;;17.77;13.57;;;-1.30;96.00;;;;;;5004514;28;20293;-85
2022/12/12 08:56:21;;;;;;;19.43;14.60;;;-1.40;93.60;;;;;;5004208;28;20190;-83
2022/12/12 08:58:48;;;;;;;18.63;14.30;;;-1.50;94.10;;;;;;5004028;28;20186;-82
2022/12/12 09:01:18;;;;;;;18.77;14.80;;;-1.50;94.90;;;;;;5003026;28;20186;-83
2022/12/12 09:03:44;;;;;;;19.53;14.70;;;-1.50;94.70;;;;;;5009840;28;20220;-83
2022/12/12 09:06:10;;;;;;;19.63;14.80;;;-1.50;95.60;;;;;;5006383;28;20254;-84
2022/12/12 09:08:36;;;;;;;20.37;14.80;;;-1.60;95.70;;;;;;5000571;28;20213;-82
2022/12/12 09:11:02;;;;;;;18.77;14.40;;;-1.60;96.60;;;;;;5003476;28;20254;-84
2022/12/12 09:13:29;;;;;;;21.87;16.53;;;-1.70;96.40;;;;;;5008383;28;20213;-85
2022/12/12 09:15:55;;;;;;;18.83;15.53;;;-1.70;96.40;;;;;;5013207;28;20197;-82
2022/12/12 09:18:22;;;;;;;22.73;15.63;;;-1.70;97.60;;;;;;5009383;28;20194;-83
2022/12/12 09:20:52;;;;;;;23.80;16.57;;;-1.80;96.80;;;;;;5010420;28;20183;-83
2022/12/12 09:23:19;;;;;;;23.60;16.20;;;-1.90;98.80;;;;;;5009679;28;20190;-83
2022/12/12 09:25:45;;;;;;;23.27;16.43;;;-1.80;99.10;;;;;;5006778;28;20292;-83
2022/12/12 09:28:12;;;;;;;24.27;17.47;;;-1.80;97.90;;;;;;5012802;28;20232;-83
2022/12/12 09:30:38;;;;;;;21.87;17.10;;;-1.90;99.50;;;;;;5011207;28;20173;-83
2022/12/12 09:33:03;;;;;;;22.00;16.33;;;-1.90;99.90;;;;;;5011626;28;20193;-83
2022/12/12 09:35:29;;;;;;;22.80;16.93;;;-1.90;99.90;;;;;;5011450;28;20581;-84
2022/12/12 09:37:55;;;;;;;23.67;17.27;;;-1.60;99.80;;;;;;5006561;28;20181;-83
2022/12/12 09:40:33;;;;;;;22.10;15.77;;;-1.50;98.40;;;;;;5008412;28;20266;-84
2022/12/12 09:42:59;;;;;;;23.77;16.50;;;-1.70;98.00;;;;;;5006221;28;20321;-83
2022/12/12 09:45:26;;;;;;;31.97;18.73;;;-1.70;99.60;;;;;;5008214;28;20210;-83
2022/12/12 09:48:00;;;;;;;23.07;19.27;;;-1.60;99.80;;;;;;5002614;28;20186;-85
2022/12/12 09:50:37;;;;;;;26.27;19.33;;;-1.50;99.00;;;;;;5014768;28;20667;-83
2022/12/12 09:53:10;;;;;;;23.33;19.30;;;-1.60;99.60;;;;;;5010347;28;20186;-84
2022/12/12 09:56:03;;;;;;;24.90;19.30;;;-1.60;99.90;;;;;;5012718;28;20220;-85
2022/12/12 09:58:40;;;;;;;29.33;20.40;;;-1.50;99.90;;;;;;5013221;28;20247;-84
2022/12/12 10:01:12;;;;;;;27.67;20.10;;;-1.50;99.50;;;;;;5014912;28;20278;-84
2022/12/12 10:04:09;;;;;;;28.30;20.77;;;-1.50;99.90;;;;;;5016053;28;20208;-84
2022/12/12 10:06:44;;;;;;;28.67;20.40;;;-1.20;99.70;;;;;;5013385;28;20331;-84
2022/12/12 10:09:48;;;;;;;29.73;21.27;;;-1.10;98.70;;;;;;5011502;28;20170;-85
2022/12/12 10:12:17;;;;;;;26.40;19.23;;;-1.30;99.40;;;;;;5003167;28;20201;-83
2022/12/12 10:14:44;;;;;;;29.90;21.23;;;-1.40;99.70;;;;;;5016988;28;20217;-84
2022/12/12 10:17:16;;;;;;;27.57;20.00;;;-1.10;98.20;;;;;;5005736;28;20197;-84
2022/12/12 10:19:49;;;;;;;27.73;21.07;;;-1.10;98.70;;;;;;5018273;28;20185;-82
2022/12/12 10:22:39;;;;;;;27.07;20.80;;;-1.20;98.80;;;;;;5016801;28;20200;-83
2022/12/12 10:25:19;;;;;;;31.50;22.30;;;-1.20;99.90;;;;;;5016168;28;20206;-85
2022/12/12 10:27:46;;;;;;;29.87;21.50;;;-1.30;99.90;;;;;;5012552;28;20184;-82
2022/12/12 10:30:17;;;;;;;31.63;21.77;;;-1.20;99.70;;;;;;5011162;28;20209;-84
2022/12/12 10:32:45;;;;;;;27.33;19.87;;;-1.00;98.70;;;;;;5011087;28;20212;-83
2022/12/12 10:35:14;;;;;;;27.90;20.93;;;-1.20;99.90;;;;;;5022571;28;20241;-84
2022/12/12 10:38:41;;;;;;;31.73;21.60;;;-0.90;98.40;;;;;;5008148;28;20182;-84
2022/12/12 10:41:28;;;;;;;26.40;19.30;;;-0.70;97.50;;;;;;4985992;28;20205;-82
2022/12/12 10:44:09;;;;;;;26.70;20.80;;;-0.50;96.60;;;;;;4985798;28;20190;-83
2022/12/12 10:46:49;;;;;;;25.90;20.53;;;-0.60;96.90;;;;;;4996376;28;20213;-83
2022/12/12 10:49:18;;;;;;;28.40;20.27;;;-0.80;99.20;;;;;;5007121;28;20193;-83
2022/12/12 10:51:45;;;;;;;28.00;20.63;;;-0.70;97.60;;;;;;5009762;28;20317;-82
2022/12/12 10:54:18;;;;;;;26.87;20.37;;;-0.50;97.00;;;;;;5010067;28;20214;-83
2022/12/12 10:57:02;;;;;;;30.17;22.60;;;-0.70;97.10;;;;;;5009494;28;20202;-83
2022/12/12 10:59:28;;;;;;;27.60;21.47;;;-0.90;99.60;;;;;;5009877;28;20181;-82
2022/12/12 11:01:59;;;;;;;30.80;21.43;;;-0.90;99.30;;;;;;5025138;28;20201;-83
2022/12/12 11:04:26;;;;;;;29.30;21.20;;;-0.70;98.10;;;;;;5007138;28;20213;-82
2022/12/12 11:06:54;;;;;;;27.60;21.17;;;-0.70;97.30;;;;;;5005200;28;20194;-83
2022/12/12 11:09:27;;;;;;;26.93;18.97;;;-0.80;97.10;;;;;;5004118;28;20225;-81
2022/12/12 11:11:59;;;;;;;28.77;20.43;;;-0.70;96.90;;;;;;5012518;28;20185;-84
2022/12/12 11:14:36;;;;;;;28.10;21.70;;;-0.80;96.50;;;;;;5009404;28;20233;-84
2022/12/12 11:17:17;;;;;;;27.03;20.30;;;-0.80;96.70;;;;;;5006346;28;20288;-84
2022/12/12 11:19:45;;;;;;;31.17;20.07;;;-0.50;94.50;;;;;;5013537;28;20194;-84
2022/12/12 11:22:12;;;;;;;28.00;19.73;;;-0.50;94.30;;;;;;5024438;28;20741;-84
2022/12/12 11:24:41;;;;;;;27.07;20.33;;;-0.60;94.10;;;;;;5005901;28;20251;-84
2022/12/12 11:27:21;;;;;;;26.43;20.50;;;-0.60;95.40;;;;;;5007203;28;20228;-83
2022/12/12 11:29:50;;;;;;;25.93;19.20;;;-0.30;94.50;;;;;;5005890;28;20189;-85
2022/12/12 11:32:27;;;;;;;26.70;19.93;;;-0.20;93.70;;;;;;5001348;28;20194;-84
2022/12/12 11:34:57;;;;;;;23.73;19.10;;;0.10;92.30;;;;;;5003501;28;20217;-84
2022/12/12 11:37:27;;;;;;;23.03;18.57;;;0.10;92.20;;;;;;5006445;28;20198;-83
2022/12/12 11:39:55;;;;;;;23.47;17.93;;;0.40;89.80;;;;;;5004447;28;20209;-82
2022/12/12 11:42:26;;;;;;;22.20;18.17;;;0.50;89.80;;;;;;5003899;28;20184;-82
2022/12/12 11:45:18;;;;;;;27.93;19.67;;;0.70;89.00;;;;;;5007682;28;20286;-83
2022/12/12 11:47:46;;;;;;;24.93;19.00;;;1.30;86.00;;;;;;5011203;28;20198;-83
2022/12/12 11:50:26;;;;;;;20.53;17.17;;;1.60;84.60;;;;;;5011027;28;20668;-84
2022/12/12 11:52:59;;;;;;;20.63;17.63;;;2.00;82.00;;;;;;5006036;28;20657;-85
2022/12/12 11:55:52;;;;;;;22.93;18.17;;;2.20;79.60;;;;;;5008684;28;20222;-84
2022/12/12 11:58:32;;;;;;;22.57;18.23;;;2.30;79.30;;;;;;5003992;28;20254;-85
2022/12/12 12:01:24;;;;;;;23.87;18.53;;;2.70;77.30;;;;;;5011728;28;20192;-85
2022/12/12 12:04:12;;;;;;;25.07;18.50;;;2.70;75.60;;;;;;5025969;28;20197;-84
2022/12/12 12:07:06;;;;;;;25.73;19.10;;;2.50;77.60;;;;;;5007918;28;20376;-83
2022/12/12 12:09:40;;;;;;;26.37;20.07;;;2.70;76.50;;;;;;5003023;28;20186;-85
2022/12/12 12:12:18;;;;;;;24.13;19.60;;;2.40;76.50;;;;;;4997444;28;20201;-83
2022/12/12 12:15:01;;;;;;;33.63;19.90;;;2.60;76.60;;;;;;5003334;28;20224;-84
2022/12/12 12:18:01;;;;;;;28.80;19.73;;;3.10;74.40;;;;;;5005899;28;20601;-83
2022/12/12 12:21:05;;;;;;;24.80;19.03;;;3.50;72.30;;;;;;5001254;28;20693;-82
2022/12/12 12:24:04;;;;;;;21.63;18.43;;;3.50;72.40;;;;;;4999650;28;20244;-84
2022/12/12 12:27:00;;;;;;;22.53;19.10;;;3.40;73.00;;;;;;5006622;28;20186;-81
2022/12/12 12:29:47;;;;;;;21.23;18.90;;;3.90;71.50;;;;;;5006579;28;20276;-81
2022/12/12 12:32:22;;;;;;;22.73;20.10;;;4.10;68.10;;;;;;5006874;28;20220;-81
2022/12/12 12:34:48;;;;;;;20.60;18.37;;;4.10;68.70;;;;;;5003809;28;20208;-80
2022/12/12 12:37:16;;;;;;;20.57;18.13;;;3.80;68.80;;;;;;5007777;28;20185;-80
2022/12/12 12:39:42;;;;;;;22.40;18.70;;;3.70;69.70;;;;;;5005808;28;20252;-83
2022/12/12 12:42:32;;;;;;;20.13;17.73;;;3.80;69.40;;;;;;5021708;28;20213;-84
2022/12/12 12:45:12;;;;;;;22.33;19.93;;;4.00;66.60;;;;;;5004590;28;20235;-84
2022/12/12 12:47:59;;;;;;;24.70;18.83;;;3.90;67.50;;;;;;5010305;28;20831;-84
2022/12/12 12:50:31;;;;;;;22.47;18.77;;;3.60;68.60;;;;;;5011893;28;20267;-84
2022/12/12 12:53:17;;;;;;;20.20;18.10;;;3.20;69.80;;;;;;5011998;28;20251;-83
2022/12/12 12:55:47;;;;;;;23.47;18.30;;;3.10;71.20;;;;;;5010829;28;20228;-83
2022/12/12 12:58:32;;;;;;;35.63;31.90;;;3.20;70.90;;;;;;5014748;28;20189;-83
2022/12/12 13:01:17;;;;;;;23.37;20.07;;;3.00;70.50;;;;;;5020124;28;20193;-82
2022/12/12 13:04:17;;;;;;;23.20;18.83;;;2.80;71.80;;;;;;5016531;28;20189;-84
2022/12/12 13:06:52;;;;;;;21.40;18.00;;;2.60;73.20;;;;;;5014559;28;20213;-82